sensor_id;sensor_type;location;lat;lon;timestamp;temperature;humidity
2633;DHT22;1326;48.692;16.870;2022-08-02T00:00:10;20.30;99.90
2633;DHT22;1326;48.692;16.870;2022-08-02T00:02:43;20.10;99.90
2633;DHT22;1326;48.692;16.870;2022-08-02T00:05:12;20.10;99.90
2633;DHT22;1326;48.692;16.870;2022-08-02T00:07:40;20.00;99.90
2633;DHT22;1326;48.692;16.870;2022-08-02T00:10:09;19.90;99.90
2633;DHT22;1326;48.692;16.870;2022-08-02T00:12:37;19.90;99.90
2633;DHT22;1326;48.692;16.870;2022-08-02T00:15:07;19.90;99.90
2633;DHT22;1326;48.692;16.870;2022-08-02T00:17:34;19.80;99.90
2633;DHT22;1326;48.692;16.870;2022-08-02T00:20:03;19.80;99.90
2633;DHT22;1326;48.692;16.870;2022-08-02T00:22:32;19.80;99.90
2633;DHT22;1326;48.692;16.870;2022-08-02T00:24:59;19.80;99.90
2633;DHT22;1326;48.692;16.870;2022-08-02T00:27:27;19.80;99.90
2633;DHT22;1326;48.692;16.870;2022-08-02T00:29:54;19.80;99.90
2633;DHT22;1326;48.692;16.870;2022-08-02T00:32:22;19.80;99.90
2633;DHT22;1326;48.692;16.870;2022-08-02T00:34:50;19.80;99.90
2633;DHT22;1326;48.692;16.870;2022-08-02T00:37:18;19.80;99.90
2633;DHT22;1326;48.692;16.870;2022-08-02T00:39:45;19.80;99.90
2633;DHT22;1326;48.692;16.870;2022-08-02T00:42:13;19.80;99.90
2633;DHT22;1326;48.692;16.870;2022-08-02T00:44:41;19.70;99.90
2633;DHT22;1326;48.692;16.870;2022-08-02T00:47:09;19.70;99.90
2633;DHT22;1326;48.692;16.870;2022-08-02T00:49:37;19.70;99.90
2633;DHT22;1326;48.692;16.870;2022-08-02T00:52:05;19.60;99.90
2633;DHT22;1326;48.692;16.870;2022-08-02T00:54:33;19.60;99.90
2633;DHT22;1326;48.692;16.870;2022-08-02T00:57:00;19.60;99.90
2633;DHT22;1326;48.692;16.870;2022-08-02T00:59:28;19.60;99.90
2633;DHT22;1326;48.692;16.870;2022-08-02T01:01:55;19.50;99.90
2633;DHT22;1326;48.692;16.870;2022-08-02T01:04:23;19.50;99.90
2633;DHT22;1326;48.692;16.870;2022-08-02T01:06:51;19.50;99.90
2633;DHT22;1326;48.692;16.870;2022-08-02T01:09:18;19.50;99.90
2633;DHT22;1326;48.692;16.870;2022-08-02T01:11:46;19.50;99.90
2633;DHT22;1326;48.692;16.870;2022-08-02T01:14:14;19.40;99.90
2633;DHT22;1326;48.692;16.870;2022-08-02T01:16:56;19.40;99.90
2633;DHT22;1326;48.692;16.870;2022-08-02T01:30:54;19.20;99.90
2633;DHT22;1326;48.692;16.870;2022-08-02T01:33:20;19.20;99.90
2633;DHT22;1326;48.692;16.870;2022-08-02T01:35:51;19.10;99.90
2633;DHT22;1326;48.692;16.870;2022-08-02T01:38:36;19.10;99.90
2633;DHT22;1326;48.692;16.870;2022-08-02T01:41:05;19.10;99.90
2633;DHT22;1326;48.692;16.870;2022-08-02T01:43:35;19.00;99.90
2633;DHT22;1326;48.692;16.870;2022-08-02T01:46:04;19.10;99.90
2633;DHT22;1326;48.692;16.870;2022-08-02T01:48:34;19.00;99.90
2633;DHT22;1326;48.692;16.870;2022-08-02T01:51:02;19.00;99.90
2633;DHT22;1326;48.692;16.870;2022-08-02T01:53:31;19.00;99.90
2633;DHT22;1326;48.692;16.870;2022-08-02T01:55:59;18.90;99.90
2633;DHT22;1326;48.692;16.870;2022-08-02T01:58:30;18.90;99.90
2633;DHT22;1326;48.692;16.870;2022-08-02T02:00:59;18.80;99.90
2633;DHT22;1326;48.692;16.870;2022-08-02T02:03:28;18.80;99.90
2633;DHT22;1326;48.692;16.870;2022-08-02T02:05:59;18.70;99.90
2633;DHT22;1326;48.692;16.870;2022-08-02T02:08:38;18.70;99.90
2633;DHT22;1326;48.692;16.870;2022-08-02T02:11:07;18.60;99.90
2633;DHT22;1326;48.692;16.870;2022-08-02T02:13:37;18.60;99.90
2633;DHT22;1326;48.692;16.870;2022-08-02T02:16:08;18.60;99.90
2633;DHT22;1326;48.692;16.870;2022-08-02T02:18:38;18.60;99.90
2633;DHT22;1326;48.692;16.870;2022-08-02T02:21:10;18.70;99.90
2633;DHT22;1326;48.692;16.870;2022-08-02T02:23:38;18.70;99.90
2633;DHT22;1326;48.692;16.870;2022-08-02T02:26:07;18.70;99.90
2633;DHT22;1326;48.692;16.870;2022-08-02T02:28:36;18.60;99.90
2633;DHT22;1326;48.692;16.870;2022-08-02T02:31:13;18.60;99.90
2633;DHT22;1326;48.692;16.870;2022-08-02T02:33:50;18.60;99.90
2633;DHT22;1326;48.692;16.870;2022-08-02T02:36:18;18.60;99.90
2633;DHT22;1326;48.692;16.870;2022-08-02T02:38:47;18.60;99.90
2633;DHT22;1326;48.692;16.870;2022-08-02T02:41:18;18.60;99.90
2633;DHT22;1326;48.692;16.870;2022-08-02T02:43:47;18.70;99.90
2633;DHT22;1326;48.692;16.870;2022-08-02T02:46:17;18.60;99.90
2633;DHT22;1326;48.692;16.870;2022-08-02T02:48:49;18.60;99.90
2633;DHT22;1326;48.692;16.870;2022-08-02T02:51:18;18.60;99.90
2633;DHT22;1326;48.692;16.870;2022-08-02T02:53:48;18.60;99.90
2633;DHT22;1326;48.692;16.870;2022-08-02T02:56:17;18.60;99.90
2633;DHT22;1326;48.692;16.870;2022-08-02T02:58:45;18.60;99.90
2633;DHT22;1326;48.692;16.870;2022-08-02T03:01:13;18.60;99.90
2633;DHT22;1326;48.692;16.870;2022-08-02T03:03:54;18.60;99.90
2633;DHT22;1326;48.692;16.870;2022-08-02T03:06:22;18.40;99.90
2633;DHT22;1326;48.692;16.870;2022-08-02T03:08:50;18.40;99.90
2633;DHT22;1326;48.692;16.870;2022-08-02T03:11:18;18.40;99.90
2633;DHT22;1326;48.692;16.870;2022-08-02T03:13:46;18.40;99.90
2633;DHT22;1326;48.692;16.870;2022-08-02T03:16:14;18.30;99.90
2633;DHT22;1326;48.692;16.870;2022-08-02T03:18:43;18.40;99.90
2633;DHT22;1326;48.692;16.870;2022-08-02T03:21:13;18.40;99.90
2633;DHT22;1326;48.692;16.870;2022-08-02T03:23:43;18.40;99.90
2633;DHT22;1326;48.692;16.870;2022-08-02T03:26:10;18.40;99.90
2633;DHT22;1326;48.692;16.870;2022-08-02T03:28:39;18.40;99.90
2633;DHT22;1326;48.692;16.870;2022-08-02T03:31:07;18.40;99.90
2633;DHT22;1326;48.692;16.870;2022-08-02T03:33:35;18.40;99.90
2633;DHT22;1326;48.692;16.870;2022-08-02T03:36:06;18.40;99.90
2633;DHT22;1326;48.692;16.870;2022-08-02T03:38:34;18.40;99.90
2633;DHT22;1326;48.692;16.870;2022-08-02T03:41:05;18.30;99.90
2633;DHT22;1326;48.692;16.870;2022-08-02T03:43:32;18.40;99.90
2633;DHT22;1326;48.692;16.870;2022-08-02T03:46:03;18.40;99.90
2633;DHT22;1326;48.692;16.870;2022-08-02T03:48:32;18.40;99.90
2633;DHT22;1326;48.692;16.870;2022-08-02T03:51:00;18.30;99.90
2633;DHT22;1326;48.692;16.870;2022-08-02T03:53:28;18.20;99.90
2633;DHT22;1326;48.692;16.870;2022-08-02T03:55:56;18.20;99.90
2633;DHT22;1326;48.692;16.870;2022-08-02T03:58:24;18.20;99.90
2633;DHT22;1326;48.692;16.870;2022-08-02T04:00:54;18.20;99.90
2633;DHT22;1326;48.692;16.870;2022-08-02T04:03:23;18.20;99.90
2633;DHT22;1326;48.692;16.870;2022-08-02T04:05:50;18.20;99.90
2633;DHT22;1326;48.692;16.870;2022-08-02T04:08:18;18.20;99.90
2633;DHT22;1326;48.692;16.870;2022-08-02T04:10:46;18.20;99.90
2633;DHT22;1326;48.692;16.870;2022-08-02T04:13:34;18.20;99.90
2633;DHT22;1326;48.692;16.870;2022-08-02T04:16:13;18.20;99.90
2633;DHT22;1326;48.692;16.870;2022-08-02T04:18:49;18.20;99.90
2633;DHT22;1326;48.692;16.870;2022-08-02T04:21:14;18.30;99.90
2633;DHT22;1326;48.692;16.870;2022-08-02T04:23:44;18.30;99.90
2633;DHT22;1326;48.692;16.870;2022-08-02T04:26:12;18.40;99.90
2633;DHT22;1326;48.692;16.870;2022-08-02T04:28:40;18.30;99.90
2633;DHT22;1326;48.692;16.870;2022-08-02T04:31:09;18.40;99.90
2633;DHT22;1326;48.692;16.870;2022-08-02T04:33:37;18.40;99.90
2633;DHT22;1326;48.692;16.870;2022-08-02T04:36:06;18.40;99.90
2633;DHT22;1326;48.692;16.870;2022-08-02T04:38:34;18.50;99.90
2633;DHT22;1326;48.692;16.870;2022-08-02T04:41:02;18.60;99.90
2633;DHT22;1326;48.692;16.870;2022-08-02T04:43:29;18.60;99.90
2633;DHT22;1326;48.692;16.870;2022-08-02T04:45:57;18.70;99.90
2633;DHT22;1326;48.692;16.870;2022-08-02T04:48:27;18.70;99.90
2633;DHT22;1326;48.692;16.870;2022-08-02T04:50:54;18.80;99.90
2633;DHT22;1326;48.692;16.870;2022-08-02T04:53:22;18.80;99.90
2633;DHT22;1326;48.692;16.870;2022-08-02T04:55:50;18.90;99.90
2633;DHT22;1326;48.692;16.870;2022-08-02T04:58:17;19.00;99.90
2633;DHT22;1326;48.692;16.870;2022-08-02T05:00:45;19.10;99.90
2633;DHT22;1326;48.692;16.870;2022-08-02T05:03:12;19.10;99.90
2633;DHT22;1326;48.692;16.870;2022-08-02T05:05:40;19.20;99.90
2633;DHT22;1326;48.692;16.870;2022-08-02T05:08:07;19.30;99.90
2633;DHT22;1326;48.692;16.870;2022-08-02T05:10:35;19.40;99.90
2633;DHT22;1326;48.692;16.870;2022-08-02T05:13:04;19.40;99.90
2633;DHT22;1326;48.692;16.870;2022-08-02T05:15:32;19.60;99.90
2633;DHT22;1326;48.692;16.870;2022-08-02T05:17:59;19.60;99.90
2633;DHT22;1326;48.692;16.870;2022-08-02T05:20:28;19.70;99.90
2633;DHT22;1326;48.692;16.870;2022-08-02T05:22:55;19.80;99.90
2633;DHT22;1326;48.692;16.870;2022-08-02T05:25:23;19.80;99.90
2633;DHT22;1326;48.692;16.870;2022-08-02T05:27:51;19.90;99.90
2633;DHT22;1326;48.692;16.870;2022-08-02T05:30:18;20.00;99.90
2633;DHT22;1326;48.692;16.870;2022-08-02T05:32:47;20.10;99.90
2633;DHT22;1326;48.692;16.870;2022-08-02T05:35:22;20.20;99.90
2633;DHT22;1326;48.692;16.870;2022-08-02T05:37:51;20.30;99.90
2633;DHT22;1326;48.692;16.870;2022-08-02T05:40:19;20.30;99.90
2633;DHT22;1326;48.692;16.870;2022-08-02T05:42:47;20.40;99.90
2633;DHT22;1326;48.692;16.870;2022-08-02T05:45:14;20.40;99.90
2633;DHT22;1326;48.692;16.870;2022-08-02T05:47:43;20.50;99.90
2633;DHT22;1326;48.692;16.870;2022-08-02T05:50:10;20.60;99.90
2633;DHT22;1326;48.692;16.870;2022-08-02T05:55:17;20.70;99.90
2633;DHT22;1326;48.692;16.870;2022-08-02T05:58:13;20.70;99.90
2633;DHT22;1326;48.692;16.870;2022-08-02T06:00:41;20.80;99.90
2633;DHT22;1326;48.692;16.870;2022-08-02T06:06:00;20.80;99.90
2633;DHT22;1326;48.692;16.870;2022-08-02T06:08:40;21.00;99.90
2633;DHT22;1326;48.692;16.870;2022-08-02T06:11:11;21.10;99.90
2633;DHT22;1326;48.692;16.870;2022-08-02T06:13:42;21.10;99.90
2633;DHT22;1326;48.692;16.870;2022-08-02T06:16:10;21.20;99.90
2633;DHT22;1326;48.692;16.870;2022-08-02T06:18:42;21.20;99.90
2633;DHT22;1326;48.692;16.870;2022-08-02T06:21:09;21.20;99.90
2633;DHT22;1326;48.692;16.870;2022-08-02T06:23:41;21.20;99.90
2633;DHT22;1326;48.692;16.870;2022-08-02T06:26:10;21.30;99.90
2633;DHT22;1326;48.692;16.870;2022-08-02T06:28:39;21.40;99.90
2633;DHT22;1326;48.692;16.870;2022-08-02T06:31:07;21.50;99.90
2633;DHT22;1326;48.692;16.870;2022-08-02T06:33:35;21.50;99.90
2633;DHT22;1326;48.692;16.870;2022-08-02T06:36:09;21.50;99.90
2633;DHT22;1326;48.692;16.870;2022-08-02T06:38:43;21.50;99.90
2633;DHT22;1326;48.692;16.870;2022-08-02T06:41:14;21.60;99.90
2633;DHT22;1326;48.692;16.870;2022-08-02T06:43:54;21.60;99.90
2633;DHT22;1326;48.692;16.870;2022-08-02T06:46:23;21.70;99.90
2633;DHT22;1326;48.692;16.870;2022-08-02T06:48:50;21.80;99.90
2633;DHT22;1326;48.692;16.870;2022-08-02T06:51:18;21.90;99.90
2633;DHT22;1326;48.692;16.870;2022-08-02T06:53:47;21.90;99.90
2633;DHT22;1326;48.692;16.870;2022-08-02T06:56:15;21.90;99.90
2633;DHT22;1326;48.692;16.870;2022-08-02T06:58:43;22.00;99.90
2633;DHT22;1326;48.692;16.870;2022-08-02T07:01:11;22.00;99.90
2633;DHT22;1326;48.692;16.870;2022-08-02T07:03:39;22.10;99.90
2633;DHT22;1326;48.692;16.870;2022-08-02T07:06:07;22.20;99.90
2633;DHT22;1326;48.692;16.870;2022-08-02T07:08:37;22.30;99.90
2633;DHT22;1326;48.692;16.870;2022-08-02T07:11:05;22.40;99.90
2633;DHT22;1326;48.692;16.870;2022-08-02T07:13:34;22.50;99.90
2633;DHT22;1326;48.692;16.870;2022-08-02T07:16:02;22.60;99.90
2633;DHT22;1326;48.692;16.870;2022-08-02T07:18:30;22.70;99.90
2633;DHT22;1326;48.692;16.870;2022-08-02T07:20:58;22.70;99.90
2633;DHT22;1326;48.692;16.870;2022-08-02T07:23:25;22.60;99.90
2633;DHT22;1326;48.692;16.870;2022-08-02T07:25:53;22.70;99.90
2633;DHT22;1326;48.692;16.870;2022-08-02T07:28:20;22.70;99.90
2633;DHT22;1326;48.692;16.870;2022-08-02T07:30:48;22.80;99.90
2633;DHT22;1326;48.692;16.870;2022-08-02T07:33:16;22.80;99.90
2633;DHT22;1326;48.692;16.870;2022-08-02T07:35:43;22.90;99.90
2633;DHT22;1326;48.692;16.870;2022-08-02T07:38:11;22.90;99.90
2633;DHT22;1326;48.692;16.870;2022-08-02T07:40:39;22.90;99.90
2633;DHT22;1326;48.692;16.870;2022-08-02T07:43:06;23.00;99.90
2633;DHT22;1326;48.692;16.870;2022-08-02T07:45:34;23.10;99.90
2633;DHT22;1326;48.692;16.870;2022-08-02T07:48:01;23.10;99.90
2633;DHT22;1326;48.692;16.870;2022-08-02T07:50:29;23.20;99.90
2633;DHT22;1326;48.692;16.870;2022-08-02T07:52:57;23.30;99.90
2633;DHT22;1326;48.692;16.870;2022-08-02T07:55:25;23.40;99.90
2633;DHT22;1326;48.692;16.870;2022-08-02T07:57:53;23.50;99.90
2633;DHT22;1326;48.692;16.870;2022-08-02T08:00:20;23.40;99.90
2633;DHT22;1326;48.692;16.870;2022-08-02T08:02:48;23.50;99.90
2633;DHT22;1326;48.692;16.870;2022-08-02T08:05:15;23.60;99.90
2633;DHT22;1326;48.692;16.870;2022-08-02T08:07:43;23.70;99.90
2633;DHT22;1326;48.692;16.870;2022-08-02T08:10:10;23.70;99.90
2633;DHT22;1326;48.692;16.870;2022-08-02T08:12:38;23.80;99.90
2633;DHT22;1326;48.692;16.870;2022-08-02T08:15:06;23.70;99.90
2633;DHT22;1326;48.692;16.870;2022-08-02T08:17:34;23.70;99.90
2633;DHT22;1326;48.692;16.870;2022-08-02T08:20:04;23.70;99.90
2633;DHT22;1326;48.692;16.870;2022-08-02T08:22:31;23.90;99.90
2633;DHT22;1326;48.692;16.870;2022-08-02T08:24:59;23.90;99.90
2633;DHT22;1326;48.692;16.870;2022-08-02T08:27:26;24.00;99.90
2633;DHT22;1326;48.692;16.870;2022-08-02T08:29:54;24.20;99.90
2633;DHT22;1326;48.692;16.870;2022-08-02T08:32:22;24.30;99.90
2633;DHT22;1326;48.692;16.870;2022-08-02T08:34:50;24.30;99.90
2633;DHT22;1326;48.692;16.870;2022-08-02T08:37:18;24.30;99.90
2633;DHT22;1326;48.692;16.870;2022-08-02T08:39:46;24.40;99.90
2633;DHT22;1326;48.692;16.870;2022-08-02T08:42:13;24.50;99.90
2633;DHT22;1326;48.692;16.870;2022-08-02T08:44:41;24.60;99.90
2633;DHT22;1326;48.692;16.870;2022-08-02T08:47:10;24.50;99.90
2633;DHT22;1326;48.692;16.870;2022-08-02T08:49:43;24.40;99.90
2633;DHT22;1326;48.692;16.870;2022-08-02T08:52:12;24.50;99.90
2633;DHT22;1326;48.692;16.870;2022-08-02T08:54:41;24.60;99.90
2633;DHT22;1326;48.692;16.870;2022-08-02T08:57:10;24.70;99.90
2633;DHT22;1326;48.692;16.870;2022-08-02T08:59:38;24.70;99.90
2633;DHT22;1326;48.692;16.870;2022-08-02T09:02:06;24.80;99.90
2633;DHT22;1326;48.692;16.870;2022-08-02T09:04:34;24.80;99.90
2633;DHT22;1326;48.692;16.870;2022-08-02T09:07:02;24.80;99.90
2633;DHT22;1326;48.692;16.870;2022-08-02T09:09:29;24.80;99.90
2633;DHT22;1326;48.692;16.870;2022-08-02T09:12:13;24.90;99.90
2633;DHT22;1326;48.692;16.870;2022-08-02T09:14:41;24.90;99.90
2633;DHT22;1326;48.692;16.870;2022-08-02T09:17:09;25.00;99.90
2633;DHT22;1326;48.692;16.870;2022-08-02T09:19:39;25.10;99.90
2633;DHT22;1326;48.692;16.870;2022-08-02T09:22:09;25.10;99.90
2633;DHT22;1326;48.692;16.870;2022-08-02T09:24:45;25.10;99.90
2633;DHT22;1326;48.692;16.870;2022-08-02T09:27:18;25.30;99.90
2633;DHT22;1326;48.692;16.870;2022-08-02T09:29:51;25.30;99.90
2633;DHT22;1326;48.692;16.870;2022-08-02T09:32:19;25.60;99.90
2633;DHT22;1326;48.692;16.870;2022-08-02T09:34:49;25.60;99.90
2633;DHT22;1326;48.692;16.870;2022-08-02T09:37:27;25.70;99.90
2633;DHT22;1326;48.692;16.870;2022-08-02T09:39:56;25.80;99.90
2633;DHT22;1326;48.692;16.870;2022-08-02T09:42:26;25.90;99.90
2633;DHT22;1326;48.692;16.870;2022-08-02T09:44:56;26.00;99.90
2633;DHT22;1326;48.692;16.870;2022-08-02T09:47:25;26.20;99.90
2633;DHT22;1326;48.692;16.870;2022-08-02T09:49:56;26.30;99.90
2633;DHT22;1326;48.692;16.870;2022-08-02T09:52:30;26.30;99.90
2633;DHT22;1326;48.692;16.870;2022-08-02T09:55:05;26.40;99.90
2633;DHT22;1326;48.692;16.870;2022-08-02T09:57:33;26.30;99.90
2633;DHT22;1326;48.692;16.870;2022-08-02T10:00:09;26.30;99.90
2633;DHT22;1326;48.692;16.870;2022-08-02T10:02:35;26.40;99.90
2633;DHT22;1326;48.692;16.870;2022-08-02T10:05:03;26.50;99.90
2633;DHT22;1326;48.692;16.870;2022-08-02T10:07:31;26.50;99.90
2633;DHT22;1326;48.692;16.870;2022-08-02T10:09:59;26.40;99.90
2633;DHT22;1326;48.692;16.870;2022-08-02T10:12:27;26.50;99.90
2633;DHT22;1326;48.692;16.870;2022-08-02T10:14:54;26.40;99.90
2633;DHT22;1326;48.692;16.870;2022-08-02T10:17:22;26.50;99.90
2633;DHT22;1326;48.692;16.870;2022-08-02T10:19:50;26.60;99.90
2633;DHT22;1326;48.692;16.870;2022-08-02T10:22:18;26.60;99.90
2633;DHT22;1326;48.692;16.870;2022-08-02T10:24:47;26.70;99.90
2633;DHT22;1326;48.692;16.870;2022-08-02T10:27:19;26.80;99.90
2633;DHT22;1326;48.692;16.870;2022-08-02T10:29:49;26.90;99.40
2633;DHT22;1326;48.692;16.870;2022-08-02T10:32:28;27.10;98.00
2633;DHT22;1326;48.692;16.870;2022-08-02T10:35:06;27.20;95.20
2633;DHT22;1326;48.692;16.870;2022-08-02T10:37:32;27.10;94.80
2633;DHT22;1326;48.692;16.870;2022-08-02T10:40:00;27.10;96.10
2633;DHT22;1326;48.692;16.870;2022-08-02T10:42:55;27.20;96.50
2633;DHT22;1326;48.692;16.870;2022-08-02T10:45:20;27.40;96.30
2633;DHT22;1326;48.692;16.870;2022-08-02T10:48:11;27.40;96.00
2633;DHT22;1326;48.692;16.870;2022-08-02T10:53:26;27.40;95.90
2633;DHT22;1326;48.692;16.870;2022-08-02T10:56:03;27.50;95.00
2633;DHT22;1326;48.692;16.870;2022-08-02T10:58:29;27.60;94.00
2633;DHT22;1326;48.692;16.870;2022-08-02T11:03:43;27.60;92.70
2633;DHT22;1326;48.692;16.870;2022-08-02T11:06:12;27.80;92.40
2633;DHT22;1326;48.692;16.870;2022-08-02T11:08:40;27.80;93.80
2633;DHT22;1326;48.692;16.870;2022-08-02T11:11:18;27.80;93.60
2633;DHT22;1326;48.692;16.870;2022-08-02T11:14:04;27.80;93.40
2633;DHT22;1326;48.692;16.870;2022-08-02T11:19:27;27.90;90.20
2633;DHT22;1326;48.692;16.870;2022-08-02T11:22:05;27.90;90.10
2633;DHT22;1326;48.692;16.870;2022-08-02T11:24:37;28.00;91.10
2633;DHT22;1326;48.692;16.870;2022-08-02T11:27:07;28.10;90.60
2633;DHT22;1326;48.692;16.870;2022-08-02T11:29:40;28.30;91.20
2633;DHT22;1326;48.692;16.870;2022-08-02T11:32:22;28.30;89.90
2633;DHT22;1326;48.692;16.870;2022-08-02T11:34:52;28.30;85.80
2633;DHT22;1326;48.692;16.870;2022-08-02T11:37:34;28.30;90.20
2633;DHT22;1326;48.692;16.870;2022-08-02T11:40:08;28.50;90.10
2633;DHT22;1326;48.692;16.870;2022-08-02T11:42:38;28.50;86.90
2633;DHT22;1326;48.692;16.870;2022-08-02T11:45:07;28.50;86.20
2633;DHT22;1326;48.692;16.870;2022-08-02T11:50:14;28.80;87.60
2633;DHT22;1326;48.692;16.870;2022-08-02T11:52:42;29.20;80.60
2633;DHT22;1326;48.692;16.870;2022-08-02T11:55:11;29.60;79.70
2633;DHT22;1326;48.692;16.870;2022-08-02T11:57:39;30.10;75.70
2633;DHT22;1326;48.692;16.870;2022-08-02T12:00:15;30.50;73.30
2633;DHT22;1326;48.692;16.870;2022-08-02T12:02:47;30.80;72.90
2633;DHT22;1326;48.692;16.870;2022-08-02T12:05:17;30.80;75.00
2633;DHT22;1326;48.692;16.870;2022-08-02T12:07:45;31.10;73.50
2633;DHT22;1326;48.692;16.870;2022-08-02T12:10:15;31.50;68.90
2633;DHT22;1326;48.692;16.870;2022-08-02T12:12:57;31.80;70.10
2633;DHT22;1326;48.692;16.870;2022-08-02T12:15:33;31.80;68.50
2633;DHT22;1326;48.692;16.870;2022-08-02T12:18:07;31.80;64.60
2633;DHT22;1326;48.692;16.870;2022-08-02T12:20:53;31.80;64.00
2633;DHT22;1326;48.692;16.870;2022-08-02T12:23:21;32.30;61.50
2633;DHT22;1326;48.692;16.870;2022-08-02T12:26:05;32.50;63.70
2633;DHT22;1326;48.692;16.870;2022-08-02T12:28:37;33.20;60.10
2633;DHT22;1326;48.692;16.870;2022-08-02T12:31:07;32.80;60.70
2633;DHT22;1326;48.692;16.870;2022-08-02T12:33:53;33.20;60.10
2633;DHT22;1326;48.692;16.870;2022-08-02T12:36:22;33.10;58.50
2633;DHT22;1326;48.692;16.870;2022-08-02T12:38:53;33.10;57.60
2633;DHT22;1326;48.692;16.870;2022-08-02T12:41:21;32.80;57.20
2633;DHT22;1326;48.692;16.870;2022-08-02T12:43:50;32.90;58.60
2633;DHT22;1326;48.692;16.870;2022-08-02T12:46:20;32.70;58.40
2633;DHT22;1326;48.692;16.870;2022-08-02T12:48:50;32.60;58.30
2633;DHT22;1326;48.692;16.870;2022-08-02T12:51:23;32.30;59.40
2633;DHT22;1326;48.692;16.870;2022-08-02T12:53:53;32.20;59.00
2633;DHT22;1326;48.692;16.870;2022-08-02T12:56:35;32.30;59.90
2633;DHT22;1326;48.692;16.870;2022-08-02T12:59:03;32.20;58.90
2633;DHT22;1326;48.692;16.870;2022-08-02T13:01:32;31.80;59.60
2633;DHT22;1326;48.692;16.870;2022-08-02T13:04:01;31.70;60.20
2633;DHT22;1326;48.692;16.870;2022-08-02T13:06:29;31.80;59.90
2633;DHT22;1326;48.692;16.870;2022-08-02T13:08:57;32.00;61.60
2633;DHT22;1326;48.692;16.870;2022-08-02T13:11:26;31.90;63.40
2633;DHT22;1326;48.692;16.870;2022-08-02T13:13:53;31.50;63.50
2633;DHT22;1326;48.692;16.870;2022-08-02T13:16:22;31.00;65.10
2633;DHT22;1326;48.692;16.870;2022-08-02T13:18:50;30.80;66.90
2633;DHT22;1326;48.692;16.870;2022-08-02T13:21:17;30.50;67.70
2633;DHT22;1326;48.692;16.870;2022-08-02T13:23:45;30.40;67.80
2633;DHT22;1326;48.692;16.870;2022-08-02T13:26:12;30.30;68.00
2633;DHT22;1326;48.692;16.870;2022-08-02T13:28:40;30.00;69.30
2633;DHT22;1326;48.692;16.870;2022-08-02T13:31:08;30.20;68.10
2633;DHT22;1326;48.692;16.870;2022-08-02T13:33:36;30.00;67.20
2633;DHT22;1326;48.692;16.870;2022-08-02T13:36:03;30.00;68.70
2633;DHT22;1326;48.692;16.870;2022-08-02T13:38:31;29.90;68.80
2633;DHT22;1326;48.692;16.870;2022-08-02T13:40:59;29.70;68.60
2633;DHT22;1326;48.692;16.870;2022-08-02T13:43:36;29.50;68.50
2633;DHT22;1326;48.692;16.870;2022-08-02T13:46:04;29.30;67.00
2633;DHT22;1326;48.692;16.870;2022-08-02T13:48:33;29.00;66.80
2633;DHT22;1326;48.692;16.870;2022-08-02T13:51:00;29.00;67.50
2633;DHT22;1326;48.692;16.870;2022-08-02T13:53:28;28.90;67.40
2633;DHT22;1326;48.692;16.870;2022-08-02T13:55:56;28.80;67.20
2633;DHT22;1326;48.692;16.870;2022-08-02T13:58:24;28.60;67.60
2633;DHT22;1326;48.692;16.870;2022-08-02T14:00:51;28.60;68.20
2633;DHT22;1326;48.692;16.870;2022-08-02T14:03:19;28.50;68.20
2633;DHT22;1326;48.692;16.870;2022-08-02T14:05:47;28.50;69.10
2633;DHT22;1326;48.692;16.870;2022-08-02T14:08:19;28.50;67.90
2633;DHT22;1326;48.692;16.870;2022-08-02T14:10:49;28.60;69.50
2633;DHT22;1326;48.692;16.870;2022-08-02T14:13:17;28.70;67.50
2633;DHT22;1326;48.692;16.870;2022-08-02T14:15:45;28.70;66.70
2633;DHT22;1326;48.692;16.870;2022-08-02T14:18:13;28.70;65.00
2633;DHT22;1326;48.692;16.870;2022-08-02T14:20:42;28.80;66.00
2633;DHT22;1326;48.692;16.870;2022-08-02T14:23:10;28.90;66.80
2633;DHT22;1326;48.692;16.870;2022-08-02T14:25:37;29.00;66.20
2633;DHT22;1326;48.692;16.870;2022-08-02T14:28:05;29.10;65.50
2633;DHT22;1326;48.692;16.870;2022-08-02T14:30:34;29.10;65.50
2633;DHT22;1326;48.692;16.870;2022-08-02T14:33:01;29.20;67.00
2633;DHT22;1326;48.692;16.870;2022-08-02T14:35:29;29.30;64.50
2633;DHT22;1326;48.692;16.870;2022-08-02T14:37:57;29.20;63.10
2633;DHT22;1326;48.692;16.870;2022-08-02T14:40:25;29.10;62.20
2633;DHT22;1326;48.692;16.870;2022-08-02T14:42:53;29.00;63.60
2633;DHT22;1326;48.692;16.870;2022-08-02T14:45:20;29.00;64.00
2633;DHT22;1326;48.692;16.870;2022-08-02T14:47:49;29.00;65.90
2633;DHT22;1326;48.692;16.870;2022-08-02T14:50:17;29.20;66.00
2633;DHT22;1326;48.692;16.870;2022-08-02T14:52:46;29.20;65.80
2633;DHT22;1326;48.692;16.870;2022-08-02T14:55:15;29.30;66.50
2633;DHT22;1326;48.692;16.870;2022-08-02T14:57:43;29.30;66.10
2633;DHT22;1326;48.692;16.870;2022-08-02T15:00:11;29.40;66.70
2633;DHT22;1326;48.692;16.870;2022-08-02T15:02:39;29.60;66.40
2633;DHT22;1326;48.692;16.870;2022-08-02T15:05:07;29.60;66.30
2633;DHT22;1326;48.692;16.870;2022-08-02T15:07:35;29.40;65.80
2633;DHT22;1326;48.692;16.870;2022-08-02T15:10:03;29.30;67.00
2633;DHT22;1326;48.692;16.870;2022-08-02T15:12:31;29.40;65.00
2633;DHT22;1326;48.692;16.870;2022-08-02T15:14:59;29.30;66.40
2633;DHT22;1326;48.692;16.870;2022-08-02T15:17:27;29.30;66.00
2633;DHT22;1326;48.692;16.870;2022-08-02T15:19:54;29.40;65.90
2633;DHT22;1326;48.692;16.870;2022-08-02T15:22:22;29.30;64.40
2633;DHT22;1326;48.692;16.870;2022-08-02T15:24:50;29.30;65.20
2633;DHT22;1326;48.692;16.870;2022-08-02T15:27:18;29.30;64.70
2633;DHT22;1326;48.692;16.870;2022-08-02T15:29:46;29.20;63.70
2633;DHT22;1326;48.692;16.870;2022-08-02T15:32:15;29.20;64.20
2633;DHT22;1326;48.692;16.870;2022-08-02T15:34:46;29.20;62.50
2633;DHT22;1326;48.692;16.870;2022-08-02T15:37:14;29.30;64.30
2633;DHT22;1326;48.692;16.870;2022-08-02T15:39:42;29.30;63.00
2633;DHT22;1326;48.692;16.870;2022-08-02T15:42:09;29.30;63.00
2633;DHT22;1326;48.692;16.870;2022-08-02T15:44:37;29.30;62.50
2633;DHT22;1326;48.692;16.870;2022-08-02T15:47:06;29.30;63.40
2633;DHT22;1326;48.692;16.870;2022-08-02T15:49:33;29.30;64.30
2633;DHT22;1326;48.692;16.870;2022-08-02T15:52:01;29.20;62.90
2633;DHT22;1326;48.692;16.870;2022-08-02T15:54:29;29.20;63.50
2633;DHT22;1326;48.692;16.870;2022-08-02T15:56:57;29.10;64.30
2633;DHT22;1326;48.692;16.870;2022-08-02T15:59:24;29.20;62.80
2633;DHT22;1326;48.692;16.870;2022-08-02T16:01:52;29.20;63.40
2633;DHT22;1326;48.692;16.870;2022-08-02T16:04:19;29.30;64.70
2633;DHT22;1326;48.692;16.870;2022-08-02T16:06:47;29.30;62.80
2633;DHT22;1326;48.692;16.870;2022-08-02T16:09:14;29.30;63.80
2633;DHT22;1326;48.692;16.870;2022-08-02T16:11:42;29.30;64.50
2633;DHT22;1326;48.692;16.870;2022-08-02T16:14:09;29.30;64.60
2633;DHT22;1326;48.692;16.870;2022-08-02T16:16:37;29.30;63.20
2633;DHT22;1326;48.692;16.870;2022-08-02T16:19:06;29.20;63.30
2633;DHT22;1326;48.692;16.870;2022-08-02T16:21:33;29.10;63.00
2633;DHT22;1326;48.692;16.870;2022-08-02T16:24:01;29.10;63.90
2633;DHT22;1326;48.692;16.870;2022-08-02T16:26:30;29.20;63.70